Wylie's Hourly Summary for Friday, July 6, 2018
Hour Temp
(f)
RH
(%)
Solar Rad.
(MJ/m2)
Rainfall
(in)
Wind
(mph)
7/6/2018 12:00 AM 83 64 0 0 4.02
7/6/2018 1:00 AM 82 66 0 0 2.98
7/6/2018 2:00 AM 81 69 0 0 2.3
7/6/2018 3:00 AM 79 71 0 0 1.56
7/6/2018 4:00 AM 78 78 0 0 2.49
7/6/2018 5:00 AM 77 81 0 0 2.1
7/6/2018 6:00 AM 77 81 0 0 2.15
7/6/2018 7:00 AM 77 81 0.05 0 4.18
7/6/2018 8:00 AM 78 77 0.51 0 4.25
7/6/2018 9:00 AM 81 71 1.11 0 4.14
7/6/2018 10:00 AM 85 65 1.3 0 3.38
7/6/2018 11:00 AM 87 58 2.26 0 4.01
7/6/2018 12:00 PM 90 49 2.86 0 5.35
7/6/2018 1:00 PM 92 45 2.95 0 5.15
7/6/2018 2:00 PM 93 41 2.32 0 4.88
7/6/2018 3:00 PM 87 41 1.23 0 9.31
7/6/2018 4:00 PM 78 66 0.39 0 3.92
7/6/2018 5:00 PM 81 63 0.81 0 3.46
7/6/2018 6:00 PM 82 59 0.79 0 7.33
7/6/2018 7:00 PM 81 64 0.74 0 4.75
7/6/2018 8:00 PM 81 64 0.23 0 3.86
7/6/2018 9:00 PM 80 70 0.01 0 4.89
7/6/2018 10:00 PM 79 75 0 0 4.35
7/6/2018 11:00 PM 79 66 0 0 3.22
Data Summary 82 65 17.56 0.00 4.08